createdAt,value
2018-10-18T00:01:26.505Z,10.80
2018-10-18T00:03:53.736Z,10.98
2018-10-18T00:06:20.985Z,11.57
2018-10-18T00:08:48.210Z,11.22
2018-10-18T00:11:15.477Z,11.77
2018-10-18T00:13:42.740Z,11.83
2018-10-18T00:16:10.046Z,12.82
2018-10-18T00:18:37.318Z,10.78
2018-10-18T00:21:04.789Z,13.85
2018-10-18T00:23:32.099Z,11.08
2018-10-18T00:25:59.501Z,10.60
2018-10-18T00:28:26.896Z,14.15
2018-10-18T00:30:54.284Z,10.70
2018-10-18T00:33:21.586Z,11.70
2018-10-18T00:35:48.858Z,11.20
2018-10-18T00:38:16.207Z,11.45
2018-10-18T00:40:43.511Z,12.68
2018-10-18T00:43:10.896Z,12.13
2018-10-18T00:45:38.213Z,13.50
2018-10-18T00:48:05.662Z,11.78
2018-10-18T00:50:32.929Z,13.78
2018-10-18T00:53:00.401Z,13.90
2018-10-18T00:55:27.723Z,12.70
2018-10-18T00:57:55.042Z,13.53
2018-10-18T01:00:22.326Z,13.45
2018-10-18T01:02:49.652Z,12.95
2018-10-18T01:05:17.562Z,11.70
2018-10-18T01:07:44.910Z,12.50
2018-10-18T01:10:12.198Z,13.62
2018-10-18T01:14:09.049Z,11.53
2018-10-18T01:16:36.371Z,12.00
2018-10-18T01:19:03.736Z,11.60
2018-10-18T01:21:31.122Z,13.88
2018-10-18T01:23:58.397Z,13.60
2018-10-18T01:26:25.751Z,14.63
2018-10-18T01:28:53.019Z,13.32
2018-10-18T01:31:20.327Z,12.25
2018-10-18T01:33:47.568Z,12.33
2018-10-18T01:36:15.348Z,12.55
2018-10-18T01:38:42.597Z,13.18
2018-10-18T01:41:09.941Z,12.18
2018-10-18T01:43:37.333Z,13.30
2018-10-18T01:46:05.185Z,13.20
2018-10-18T01:48:32.438Z,13.85
2018-10-18T01:50:59.702Z,12.93
2018-10-18T01:53:26.964Z,11.55
2018-10-18T01:55:54.380Z,12.33
2018-10-18T01:58:21.596Z,12.93
2018-10-18T02:00:48.910Z,13.43
2018-10-18T02:03:16.248Z,15.60
2018-10-18T02:05:43.644Z,12.60
2018-10-18T02:08:11.006Z,13.95
2018-10-18T02:10:38.269Z,13.83
2018-10-18T02:13:05.666Z,13.70
2018-10-18T02:15:32.945Z,11.90
2018-10-18T02:18:00.257Z,13.62
2018-10-18T02:20:27.627Z,13.78
2018-10-18T02:22:54.951Z,13.72
2018-10-18T02:25:22.319Z,12.10
2018-10-18T02:27:49.543Z,12.63
2018-10-18T02:30:16.840Z,14.00
2018-10-18T02:32:44.093Z,12.78
2018-10-18T02:35:11.376Z,12.88
2018-10-18T02:37:38.668Z,12.58
2018-10-18T02:40:06.068Z,12.98
2018-10-18T02:42:33.349Z,12.40
2018-10-18T02:45:00.663Z,14.13
2018-10-18T02:47:27.930Z,13.75
2018-10-18T02:49:55.231Z,14.83
2018-10-18T02:52:22.610Z,13.68
2018-10-18T02:54:49.978Z,12.35
2018-10-18T02:57:17.250Z,13.35
2018-10-18T02:59:44.597Z,13.40
2018-10-18T03:02:11.927Z,13.90
2018-10-18T03:04:39.211Z,12.47
2018-10-18T03:07:07.137Z,13.18
2018-10-18T03:09:34.428Z,14.78
2018-10-18T03:12:02.538Z,13.53
2018-10-18T03:14:29.982Z,13.80
2018-10-18T03:16:57.319Z,14.55
2018-10-18T03:19:24.926Z,14.55
2018-10-18T03:21:52.177Z,14.50
2018-10-18T03:24:19.564Z,14.07
2018-10-18T03:26:46.704Z,14.28
2018-10-18T03:29:13.969Z,15.18
2018-10-18T03:31:41.301Z,15.13
2018-10-18T03:34:08.555Z,14.73
2018-10-18T03:36:35.856Z,14.60
2018-10-18T03:39:05.265Z,13.65
2018-10-18T03:41:32.770Z,13.18
2018-10-18T03:44:00.082Z,13.40
2018-10-18T03:46:27.385Z,14.00
2018-10-18T03:48:54.622Z,14.68
2018-10-18T03:51:21.925Z,16.00
2018-10-18T03:53:49.184Z,13.62
2018-10-18T03:56:16.492Z,13.48
2018-10-18T03:58:43.820Z,14.40
2018-10-18T04:01:11.082Z,15.23
2018-10-18T04:03:39.212Z,15.55
2018-10-18T04:06:06.574Z,14.47
2018-10-18T04:08:33.844Z,14.80
2018-10-18T04:11:01.141Z,14.68
2018-10-18T04:13:28.456Z,15.72
2018-10-18T04:15:55.780Z,14.68
2018-10-18T04:18:23.142Z,14.95
2018-10-18T04:20:50.432Z,15.35
2018-10-18T04:23:23.210Z,15.28
2018-10-18T04:25:50.556Z,15.13
2018-10-18T04:28:17.845Z,15.85
2018-10-18T04:30:45.135Z,14.73
2018-10-18T04:33:12.403Z,15.23
2018-10-18T04:35:39.720Z,16.20
2018-10-18T04:38:38.292Z,14.53
2018-10-18T04:41:05.623Z,14.85
2018-10-18T04:43:32.898Z,15.10
2018-10-18T04:46:00.335Z,15.55
2018-10-18T04:48:27.721Z,15.63
2018-10-18T04:50:54.843Z,15.03
2018-10-18T04:53:22.175Z,14.55
2018-10-18T04:55:49.412Z,13.15
2018-10-18T04:58:16.752Z,15.83
2018-10-18T05:00:44.084Z,15.60
2018-10-18T05:03:11.406Z,15.45
2018-10-18T05:05:46.882Z,15.00
2018-10-18T05:08:14.147Z,15.18
2018-10-18T05:10:41.436Z,15.80
2018-10-18T05:13:08.695Z,15.38
2018-10-18T05:15:35.996Z,17.17
2018-10-18T05:18:03.328Z,15.75
2018-10-18T05:20:30.612Z,16.67
2018-10-18T05:22:57.901Z,15.90
2018-10-18T05:25:25.309Z,16.07
2018-10-18T05:27:52.527Z,15.50
2018-10-18T05:30:19.766Z,16.87
2018-10-18T05:32:46.987Z,17.10
2018-10-18T05:35:14.160Z,18.75
2018-10-18T05:37:41.490Z,16.32
2018-10-18T05:40:08.827Z,16.93
2018-10-18T05:42:36.097Z,17.70
2018-10-18T05:45:03.900Z,17.10
2018-10-18T05:47:31.220Z,18.27
2018-10-18T05:49:58.643Z,17.62
2018-10-18T05:52:26.131Z,17.77
2018-10-18T05:54:53.419Z,16.67
2018-10-18T05:57:22.235Z,17.37
2018-10-18T05:59:49.546Z,16.82
2018-10-18T06:02:16.845Z,15.05
2018-10-18T06:04:44.486Z,16.42
2018-10-18T06:07:11.982Z,16.12
2018-10-18T06:09:39.268Z,16.67
2018-10-18T06:12:06.701Z,14.80
2018-10-18T06:14:34.006Z,16.07
2018-10-18T06:17:01.470Z,17.37
2018-10-18T06:19:28.804Z,13.15
2018-10-18T06:21:56.377Z,14.30
2018-10-18T06:24:24.242Z,13.62
2018-10-18T06:26:51.915Z,13.75
2018-10-18T06:29:19.452Z,13.58
2018-10-18T06:31:46.787Z,14.70
2018-10-18T06:34:14.141Z,14.28
2018-10-18T06:36:41.437Z,14.78
2018-10-18T06:39:10.044Z,15.00
2018-10-18T06:41:38.294Z,14.50
2018-10-18T06:44:05.730Z,16.15
2018-10-18T06:46:33.273Z,15.90
2018-10-18T06:49:00.899Z,15.83
2018-10-18T06:51:28.343Z,20.27
2018-10-18T06:53:55.943Z,18.32
2018-10-18T06:56:23.445Z,15.65
2018-10-18T06:58:50.954Z,15.85
2018-10-18T07:01:18.460Z,15.83
2018-10-18T07:03:46.215Z,15.65
2018-10-18T07:06:13.793Z,15.03
2018-10-18T07:08:40.902Z,15.93
2018-10-18T07:11:08.362Z,15.25
2018-10-18T07:13:35.647Z,14.30
2018-10-18T07:16:03.181Z,14.73
2018-10-18T07:18:30.824Z,13.58
2018-10-18T07:20:58.641Z,14.50
2018-10-18T07:23:26.114Z,14.23
2018-10-18T07:25:53.659Z,15.25
2018-10-18T07:28:21.272Z,13.62
2018-10-18T07:30:48.784Z,13.43
2018-10-18T07:33:16.470Z,15.20
2018-10-18T07:35:44.052Z,15.47
2018-10-18T07:38:11.632Z,13.87
2018-10-18T07:40:39.181Z,15.57
2018-10-18T07:43:06.760Z,14.47
2018-10-18T07:45:34.472Z,14.90
2018-10-18T07:48:02.047Z,14.63
2018-10-18T07:50:29.720Z,15.37
2018-10-18T07:52:57.334Z,15.40
2018-10-18T07:55:25.098Z,15.70
2018-10-18T07:57:52.713Z,15.70
2018-10-18T08:00:20.492Z,15.90
2018-10-18T08:02:48.062Z,15.30
2018-10-18T08:05:15.531Z,16.97
2018-10-18T08:07:43.057Z,16.90
2018-10-18T08:10:18.660Z,15.93
2018-10-18T08:12:46.155Z,16.53
2018-10-18T08:15:15.011Z,15.73
2018-10-18T08:17:43.203Z,15.47
2018-10-18T08:20:12.665Z,15.90
2018-10-18T08:22:41.085Z,17.90
2018-10-18T08:25:08.418Z,15.90
2018-10-18T08:27:36.136Z,17.30
2018-10-18T08:30:04.393Z,18.10
2018-10-18T08:32:31.770Z,16.57
2018-10-18T08:34:59.129Z,17.27
2018-10-18T08:37:26.546Z,16.30
2018-10-18T08:39:54.445Z,16.20
2018-10-18T08:42:21.876Z,17.90
2018-10-18T08:44:49.203Z,17.77
2018-10-18T08:47:16.531Z,16.53
2018-10-18T08:49:43.991Z,18.13
2018-10-18T08:52:11.381Z,17.80
2018-10-18T08:56:03.513Z,16.20
2018-10-18T08:58:30.973Z,16.63
2018-10-18T09:00:58.350Z,19.30
2018-10-18T09:03:25.799Z,19.50
2018-10-18T09:05:53.153Z,18.23
2018-10-18T09:08:20.516Z,18.10
2018-10-18T09:10:47.843Z,18.47
2018-10-18T09:13:15.206Z,20.73
2018-10-18T09:15:42.524Z,18.23
2018-10-18T09:18:09.825Z,18.33
2018-10-18T09:20:37.144Z,17.23
2018-10-18T09:23:04.770Z,18.33
2018-10-18T09:25:32.073Z,20.17
2018-10-18T09:27:59.785Z,16.10
2018-10-18T09:30:27.520Z,17.83
2018-10-18T09:32:54.948Z,18.63
2018-10-18T09:35:23.209Z,18.20
2018-10-18T09:37:50.470Z,18.67
2018-10-18T09:40:17.833Z,18.80
2018-10-18T09:42:45.166Z,17.53
2018-10-18T09:45:12.695Z,18.97
2018-10-18T09:47:39.980Z,17.47
2018-10-18T09:50:07.862Z,18.33
2018-10-18T09:52:35.390Z,19.50
2018-10-18T09:55:02.753Z,17.27
2018-10-18T09:57:30.045Z,19.20
2018-10-18T09:59:57.399Z,18.10
2018-10-18T10:02:30.478Z,17.03
2018-10-18T10:04:57.784Z,18.10
2018-10-18T10:07:25.184Z,17.27
2018-10-18T10:09:52.507Z,18.83
2018-10-18T10:12:19.916Z,19.97
2018-10-18T10:14:47.438Z,18.40
2018-10-18T10:17:14.843Z,18.70
2018-10-18T10:19:42.215Z,17.97
2018-10-18T10:22:09.507Z,17.70
2018-10-18T10:24:36.888Z,18.43
2018-10-18T10:27:04.290Z,39.97
2018-10-18T10:29:31.630Z,41.40
2018-10-18T10:31:58.950Z,15.97
2018-10-18T10:34:26.318Z,16.77
2018-10-18T10:36:53.643Z,15.90
2018-10-18T10:39:20.978Z,14.40
2018-10-18T10:41:48.346Z,14.80
2018-10-18T10:44:15.788Z,14.57
2018-10-18T10:46:43.095Z,16.13
2018-10-18T10:49:10.404Z,16.47
2018-10-18T10:51:37.807Z,15.23
2018-10-18T10:54:05.700Z,15.53
2018-10-18T10:56:32.973Z,15.30
2018-10-18T10:59:01.384Z,15.50
2018-10-18T11:01:28.658Z,16.93
2018-10-18T11:04:00.200Z,15.20
2018-10-18T11:06:28.320Z,15.53
2018-10-18T11:08:56.311Z,16.10
2018-10-18T11:11:24.404Z,16.03
2018-10-18T11:13:51.740Z,16.30
2018-10-18T11:16:19.075Z,17.63
2018-10-18T11:18:46.332Z,18.17
2018-10-18T11:21:15.005Z,18.27
2018-10-18T11:23:42.292Z,15.57
2018-10-18T11:26:09.669Z,16.97
2018-10-18T11:28:36.964Z,16.20
2018-10-18T11:31:04.357Z,17.70
2018-10-18T11:33:31.725Z,19.27
2018-10-18T11:36:01.024Z,18.37
2018-10-18T11:38:28.524Z,17.70
2018-10-18T11:40:55.861Z,18.30
2018-10-18T11:43:23.238Z,18.67
2018-10-18T11:45:50.535Z,19.90
2018-10-18T11:48:17.814Z,16.20
2018-10-18T11:50:45.228Z,16.77
2018-10-18T11:53:12.542Z,18.87
2018-10-18T11:55:39.900Z,18.20
2018-10-18T11:58:08.121Z,16.40
2018-10-18T12:00:35.436Z,15.30
2018-10-18T12:03:02.798Z,15.77
2018-10-18T12:05:30.105Z,14.10
2018-10-18T12:07:57.464Z,16.70
2018-10-18T12:10:24.867Z,18.00
2018-10-18T12:12:52.186Z,17.27
2018-10-18T12:17:59.166Z,14.97
2018-10-18T12:20:26.504Z,14.43
2018-10-18T12:22:53.949Z,15.80
2018-10-18T12:25:21.337Z,16.20
2018-10-18T12:27:48.706Z,16.77
2018-10-18T12:30:16.011Z,15.57
2018-10-18T12:32:43.306Z,14.50
2018-10-18T12:35:10.667Z,15.40
2018-10-18T12:37:37.985Z,16.07
2018-10-18T12:40:06.704Z,14.33
2018-10-18T12:42:34.586Z,14.93
2018-10-18T12:45:01.932Z,16.20
2018-10-18T12:47:29.359Z,14.23
2018-10-18T12:49:56.752Z,14.17
2018-10-18T12:52:24.064Z,16.27
2018-10-18T12:54:51.480Z,14.60
2018-10-18T12:57:18.782Z,15.17
2018-10-18T12:59:46.104Z,16.43
2018-10-18T13:02:13.518Z,15.40
2018-10-18T13:04:40.674Z,14.30
2018-10-18T13:07:08.036Z,14.67
2018-10-18T13:09:35.457Z,12.57
2018-10-18T13:12:02.778Z,14.33
2018-10-18T13:14:34.852Z,15.53
2018-10-18T13:17:02.348Z,13.80
2018-10-18T13:19:29.710Z,14.20
2018-10-18T13:21:57.069Z,14.87
2018-10-18T13:24:24.449Z,15.63
2018-10-18T13:26:51.808Z,14.20
2018-10-18T13:29:19.088Z,16.23
2018-10-18T13:31:46.653Z,14.07
2018-10-18T13:34:14.123Z,13.93
2018-10-18T13:36:41.416Z,14.60
2018-10-18T13:39:11.568Z,12.67
2018-10-18T13:41:38.825Z,12.93
2018-10-18T13:44:06.232Z,13.87
2018-10-18T13:46:33.754Z,12.60
2018-10-18T13:49:01.140Z,13.40
2018-10-18T13:51:28.508Z,13.97
2018-10-18T13:53:55.870Z,14.53
2018-10-18T13:56:23.241Z,13.10
2018-10-18T13:58:50.521Z,13.93
2018-10-18T14:01:17.883Z,14.00
2018-10-18T14:03:45.167Z,12.77
2018-10-18T14:06:12.464Z,15.20
2018-10-18T14:08:39.776Z,14.77
2018-10-18T14:11:07.050Z,13.30
2018-10-18T14:13:34.382Z,13.30
2018-10-18T14:16:01.710Z,12.50
2018-10-18T14:18:29.077Z,13.20
2018-10-18T14:20:56.386Z,13.70
2018-10-18T14:23:23.737Z,15.10
2018-10-18T14:25:51.133Z,13.70
2018-10-18T14:28:18.500Z,13.40
2018-10-18T14:33:25.530Z,12.73
2018-10-18T14:35:52.907Z,11.80
2018-10-18T14:39:24.127Z,13.43
2018-10-18T14:41:51.589Z,13.50
2018-10-18T14:44:18.890Z,12.37
2018-10-18T14:46:46.192Z,12.47
2018-10-18T14:49:13.512Z,11.80
2018-10-18T14:51:41.062Z,12.03
2018-10-18T14:54:08.428Z,12.40
2018-10-18T14:56:35.716Z,11.57
2018-10-18T14:59:03.076Z,11.47
2018-10-18T15:01:30.395Z,11.23
2018-10-18T15:03:57.706Z,11.40
2018-10-18T15:06:25.156Z,11.50
2018-10-18T15:08:52.465Z,11.67
2018-10-18T15:11:19.767Z,11.13
2018-10-18T15:13:47.041Z,9.77
2018-10-18T15:16:14.328Z,10.63
2018-10-18T15:18:41.669Z,11.57
2018-10-18T15:21:09.262Z,11.70
2018-10-18T15:23:36.582Z,29.03
2018-10-18T15:26:04.210Z,36.40
2018-10-18T15:28:31.574Z,16.70
2018-10-18T15:30:58.878Z,16.23
2018-10-18T15:33:26.167Z,11.90
2018-10-18T15:35:53.479Z,9.43
2018-10-18T15:38:20.942Z,11.03
2018-10-18T15:40:48.133Z,9.93
2018-10-18T15:43:15.478Z,8.83
2018-10-18T15:45:42.775Z,10.67
2018-10-18T15:48:10.065Z,10.60
2018-10-18T15:50:39.013Z,25.93
2018-10-18T15:53:07.817Z,65.17
2018-10-18T15:55:38.651Z,10.00
2018-10-18T15:58:09.015Z,8.37
2018-10-18T16:00:38.310Z,9.40
2018-10-18T16:03:05.820Z,9.10
2018-10-18T16:05:33.517Z,9.40
2018-10-18T16:08:03.307Z,9.00
2018-10-18T16:10:31.856Z,8.80
2018-10-18T16:12:59.482Z,9.47
2018-10-18T16:15:28.249Z,8.60
2018-10-18T16:17:58.393Z,9.77
2018-10-18T16:20:25.804Z,9.20
2018-10-18T16:22:54.467Z,8.60
2018-10-18T16:25:21.745Z,9.70
2018-10-18T16:27:49.603Z,10.73
2018-10-18T16:30:17.959Z,8.67
2018-10-18T16:32:46.294Z,9.77
2018-10-18T16:35:27.407Z,8.87
2018-10-18T16:37:56.516Z,9.17
2018-10-18T16:40:24.258Z,9.33
2018-10-18T16:42:55.035Z,8.70
2018-10-18T16:45:24.750Z,8.67
2018-10-18T16:52:38.741Z,8.67
2018-10-18T16:55:07.292Z,8.13
2018-10-18T16:57:34.931Z,8.13
2018-10-18T17:00:02.704Z,8.30
2018-10-18T17:02:31.873Z,8.90
2018-10-18T17:05:00.551Z,8.40
2018-10-18T17:07:30.039Z,9.20
2018-10-18T17:09:57.602Z,9.03
2018-10-18T17:12:25.106Z,9.10
2018-10-18T17:14:55.563Z,9.60
2018-10-18T17:17:23.091Z,8.23
2018-10-18T17:19:51.077Z,9.17
2018-10-18T17:22:20.927Z,9.13
2018-10-18T17:24:49.979Z,8.43
2018-10-18T17:27:19.973Z,10.23
2018-10-18T17:29:47.368Z,9.20
2018-10-18T17:32:15.134Z,10.33
2018-10-18T17:34:44.703Z,10.37
2018-10-18T17:37:12.867Z,11.27
2018-10-18T17:39:40.732Z,10.20
2018-10-18T17:42:10.495Z,11.90
2018-10-18T17:44:40.170Z,10.90
2018-10-18T17:47:09.632Z,11.23
2018-10-18T17:49:37.263Z,10.83
2018-10-18T17:52:05.376Z,10.40
2018-10-18T17:54:33.022Z,10.10
2018-10-18T17:57:00.457Z,10.13
2018-10-18T17:59:28.084Z,11.00
2018-10-18T18:01:56.407Z,11.13
2018-10-18T18:04:23.919Z,11.10
2018-10-18T18:06:51.399Z,11.80
2018-10-18T18:09:19.891Z,12.00
2018-10-18T18:11:48.273Z,11.87
2018-10-18T18:14:16.232Z,11.63
2018-10-18T18:16:45.642Z,11.93
2018-10-18T18:19:15.279Z,11.03
2018-10-18T18:21:43.694Z,12.20
2018-10-18T18:24:11.173Z,11.00
2018-10-18T18:26:45.265Z,14.70
2018-10-18T18:29:06.448Z,12.23
2018-10-18T18:31:34.791Z,11.33
2018-10-18T18:34:03.421Z,12.07
2018-10-18T18:36:33.120Z,11.80
2018-10-18T18:39:02.567Z,12.20
2018-10-18T18:41:30.254Z,13.17
2018-10-18T18:43:57.918Z,13.70
2018-10-18T18:46:25.169Z,13.47
2018-10-18T18:48:52.558Z,12.63
2018-10-18T18:51:20.340Z,13.40
2018-10-18T18:53:48.373Z,14.73
2018-10-18T18:56:16.406Z,14.23
2018-10-18T18:58:43.992Z,15.17
2018-10-18T19:08:10.216Z,13.63
2018-10-18T19:10:37.607Z,14.07
2018-10-18T19:13:06.338Z,15.57
2018-10-18T19:15:33.834Z,14.33
2018-10-18T19:18:03.104Z,16.00
2018-10-18T19:20:30.604Z,13.33
2018-10-18T19:22:59.291Z,13.97
2018-10-18T19:25:27.012Z,13.97
2018-10-18T19:27:54.526Z,14.50
2018-10-18T19:30:24.266Z,15.70
2018-10-18T19:32:53.074Z,15.10
2018-10-18T19:35:22.746Z,16.13
2018-10-18T19:37:50.259Z,15.80
2018-10-18T19:40:18.428Z,17.27
2018-10-18T19:42:46.373Z,15.67
2018-10-18T19:45:13.852Z,16.17
2018-10-18T19:47:42.422Z,15.10
2018-10-18T19:50:10.201Z,16.53
2018-10-18T19:52:37.921Z,18.63
2018-10-18T19:55:06.020Z,19.27
2018-10-18T19:57:33.487Z,16.13
2018-10-18T20:00:01.300Z,19.00
2018-10-18T20:02:28.605Z,17.67
2018-10-18T20:04:56.886Z,18.07
2018-10-18T20:07:24.376Z,18.40
2018-10-18T20:09:51.915Z,20.23
2018-10-18T20:12:19.618Z,20.20
2018-10-18T20:14:47.046Z,21.50
2018-10-18T20:17:14.510Z,21.50
2018-10-18T20:19:42.402Z,20.80
2018-10-18T20:22:11.526Z,20.07
2018-10-18T20:24:38.982Z,21.10
2018-10-18T20:27:06.709Z,20.33
2018-10-18T20:29:34.062Z,21.33
2018-10-18T20:32:02.241Z,22.30
2018-10-18T20:34:29.686Z,22.93
2018-10-18T20:36:57.160Z,22.20
2018-10-18T20:39:24.776Z,23.33
2018-10-18T20:41:52.296Z,21.83
2018-10-18T20:44:20.507Z,22.00
2018-10-18T20:46:48.629Z,22.73
2018-10-18T20:49:16.177Z,22.50
2018-10-18T20:51:43.620Z,20.27
2018-10-18T20:54:11.123Z,20.90
2018-10-18T20:56:39.580Z,21.90
2018-10-18T20:59:08.295Z,22.90
2018-10-18T21:01:35.785Z,22.20
2018-10-18T21:04:04.609Z,25.00
2018-10-18T21:06:32.199Z,24.13
2018-10-18T21:08:59.531Z,22.07
2018-10-18T21:11:28.389Z,22.70
2018-10-18T21:13:56.682Z,23.57
2018-10-18T21:16:23.960Z,23.40
2018-10-18T21:18:51.385Z,23.80
2018-10-18T21:21:19.770Z,23.43
2018-10-18T21:23:47.136Z,24.47
2018-10-18T21:26:14.569Z,24.93
2018-10-18T21:28:42.042Z,22.97
2018-10-18T21:31:10.317Z,24.40
2018-10-18T21:33:37.844Z,22.73
2018-10-18T21:36:06.274Z,23.60
2018-10-18T21:38:33.563Z,25.20
2018-10-18T21:41:02.497Z,24.23
2018-10-18T21:43:29.913Z,27.67
2018-10-18T21:45:59.514Z,26.27
2018-10-18T21:48:28.202Z,27.87
2018-10-18T21:50:55.799Z,28.73
2018-10-18T21:53:23.168Z,29.80
2018-10-18T21:55:51.745Z,27.00
2018-10-18T21:58:19.820Z,31.73
2018-10-18T22:00:48.084Z,31.57
2018-10-18T22:03:15.642Z,30.93
2018-10-18T22:05:42.856Z,28.50
2018-10-18T22:08:11.451Z,31.70
2018-10-18T22:10:38.797Z,30.25
2018-10-18T22:13:06.294Z,32.50
2018-10-18T22:15:35.870Z,31.70
2018-10-18T22:18:05.358Z,31.63
2018-10-18T22:20:33.507Z,33.07
2018-10-18T22:23:01.015Z,31.87
2018-10-18T22:25:28.470Z,34.57
2018-10-18T22:27:55.992Z,33.63
2018-10-18T22:30:23.498Z,33.70
2018-10-18T22:32:50.845Z,33.17
2018-10-18T22:35:18.190Z,33.57
2018-10-18T22:37:47.266Z,33.38
2018-10-18T22:40:14.744Z,31.40
2018-10-18T22:42:42.234Z,32.28
2018-10-18T22:45:11.587Z,34.13
2018-10-18T22:47:38.958Z,30.95
2018-10-18T22:50:06.531Z,31.77
2018-10-18T22:52:36.121Z,33.57
2018-10-18T22:55:05.491Z,31.13
2018-10-18T22:57:33.911Z,31.57
2018-10-18T23:00:01.281Z,34.37
2018-10-18T23:02:28.531Z,34.43
2018-10-18T23:05:07.723Z,35.20
2018-10-18T23:07:35.541Z,33.35
2018-10-18T23:10:05.846Z,34.35
2018-10-18T23:12:33.273Z,32.00
2018-10-18T23:15:01.636Z,36.08
2018-10-18T23:17:31.176Z,34.05
2018-10-18T23:19:58.724Z,33.15
2018-10-18T23:22:26.293Z,35.23
2018-10-18T23:24:53.712Z,34.10
2018-10-18T23:27:20.524Z,31.02
2018-10-18T23:29:50.850Z,35.13
2018-10-18T23:32:19.290Z,34.60
2018-10-18T23:34:51.010Z,32.45
2018-10-18T23:37:18.740Z,32.73
2018-10-18T23:39:46.495Z,30.57
2018-10-18T23:42:14.084Z,34.63
2018-10-18T23:44:41.539Z,31.33
2018-10-18T23:47:12.811Z,31.93
2018-10-18T23:49:42.501Z,31.05
2018-10-18T23:52:15.370Z,30.72
2018-10-18T23:54:44.368Z,36.50
2018-10-18T23:57:11.663Z,33.65
2018-10-18T23:59:42.353Z,34.13
